createdAt,value
2023-04-15T00:01:54.947Z,97505.56
2023-04-15T00:04:22.009Z,97508.88
2023-04-15T00:06:55.251Z,97504.53
2023-04-15T00:09:21.944Z,97502.91
2023-04-15T00:11:48.889Z,97496.28
2023-04-15T00:14:15.576Z,97501.03
2023-04-15T00:16:42.230Z,97489.28
2023-04-15T00:19:09.037Z,97487.66
2023-04-15T00:21:35.765Z,97463.97
2023-04-15T00:24:02.457Z,97491.81
2023-04-15T00:26:29.107Z,97484.19
2023-04-15T00:28:56.725Z,97489.78
2023-04-15T00:31:23.550Z,97489.59
2023-04-15T00:33:50.598Z,97490.84
2023-04-15T00:36:17.630Z,97492.28
2023-04-15T00:38:44.276Z,97483.66
2023-04-15T00:41:11.898Z,97498.50
2023-04-15T00:43:39.045Z,97493.53
2023-04-15T00:46:07.530Z,97494.72
2023-04-15T00:48:34.168Z,97485.84
2023-04-15T00:51:00.888Z,97483.34
2023-04-15T00:53:27.516Z,97495.72
2023-04-15T00:55:54.346Z,97473.22
2023-04-15T00:58:21.204Z,97486.00
2023-04-15T01:00:48.070Z,97492.16
2023-04-15T01:03:15.515Z,97502.19
2023-04-15T01:05:42.466Z,97491.53
2023-04-15T01:08:09.799Z,97486.38
2023-04-15T01:10:36.791Z,97505.25
2023-04-15T01:13:04.189Z,97497.41
2023-04-15T01:15:31.489Z,97502.91
2023-04-15T01:17:59.575Z,97487.88
2023-04-15T01:20:26.317Z,97500.59
2023-04-15T01:22:54.880Z,97502.44
2023-04-15T01:25:41.852Z,97478.75
2023-04-15T01:28:09.512Z,97488.66
2023-04-15T01:30:36.873Z,97494.69
2023-04-15T01:33:03.739Z,97487.50
2023-04-15T01:35:30.394Z,97492.22
2023-04-15T01:38:09.435Z,97494.88
2023-04-15T01:40:37.692Z,97497.88
2023-04-15T01:43:04.551Z,97480.38
2023-04-15T01:45:31.254Z,97495.31
2023-04-15T01:47:57.887Z,97496.25
2023-04-15T01:50:24.978Z,97478.69
2023-04-15T01:52:52.063Z,97487.63
2023-04-15T01:55:18.857Z,97491.69
2023-04-15T01:57:46.505Z,97498.13
2023-04-15T02:00:13.417Z,97478.13
2023-04-15T02:02:40.311Z,97481.41
2023-04-15T02:05:07.306Z,97481.31
2023-04-15T02:07:33.946Z,97472.47
2023-04-15T02:10:02.833Z,97490.28
2023-04-15T02:12:29.588Z,97487.56
2023-04-15T02:14:56.193Z,97490.31
2023-04-15T02:17:22.813Z,97489.81
2023-04-15T02:19:49.544Z,97491.22
2023-04-15T02:22:18.688Z,97493.31
2023-04-15T02:24:46.974Z,97493.63
2023-04-15T02:27:18.001Z,97487.22
2023-04-15T02:29:45.933Z,97491.91
2023-04-15T02:32:13.147Z,97496.81
2023-04-15T02:34:42.602Z,97492.53
2023-04-15T02:37:11.648Z,97489.94
2023-04-15T02:39:38.865Z,97497.75
2023-04-15T02:42:06.064Z,97496.75
2023-04-15T02:44:34.110Z,97496.94
2023-04-15T02:47:04.885Z,97493.47
2023-04-15T02:49:31.426Z,97506.75
2023-04-15T02:51:59.862Z,97491.44
2023-04-15T02:54:28.778Z,97508.69
2023-04-15T02:56:56.222Z,97492.97
2023-04-15T02:59:23.074Z,97490.19
2023-04-15T03:01:49.880Z,97502.13
2023-04-15T03:04:17.466Z,97505.28
2023-04-15T03:06:44.528Z,97517.56
2023-04-15T03:09:11.131Z,97509.84
2023-04-15T03:11:40.713Z,97518.03
2023-04-15T03:14:09.007Z,97529.13
2023-04-15T03:16:39.488Z,97522.44
2023-04-15T03:19:06.508Z,97527.84
2023-04-15T03:21:34.322Z,97532.00
2023-04-15T03:24:00.897Z,97521.91
2023-04-15T03:26:29.431Z,97535.00
2023-04-15T03:28:59.898Z,97518.66
2023-04-15T03:31:27.103Z,97492.50
2023-04-15T03:33:53.669Z,97534.75
2023-04-15T03:36:20.338Z,97532.09
2023-04-15T03:38:46.926Z,97522.44
2023-04-15T03:41:13.890Z,97519.22
2023-04-15T03:43:40.488Z,97528.72
2023-04-15T03:46:07.255Z,97516.84
2023-04-15T03:48:34.120Z,97515.75
2023-04-15T03:51:00.763Z,97516.38
2023-04-15T03:53:27.457Z,97522.00
2023-04-15T03:55:54.039Z,97527.88
2023-04-15T03:58:20.691Z,97518.13
2023-04-15T04:00:47.360Z,97531.31
2023-04-15T04:03:14.042Z,97528.94
2023-04-15T04:05:41.575Z,97539.25
2023-04-15T04:08:08.371Z,97531.72
2023-04-15T04:10:35.125Z,97525.72
2023-04-15T04:13:02.068Z,97529.38
2023-04-15T04:15:28.738Z,97540.59
2023-04-15T04:17:55.578Z,97534.53
2023-04-15T04:20:22.199Z,97538.22
2023-04-15T04:22:48.864Z,97530.44
2023-04-15T04:25:15.502Z,97549.69
2023-04-15T04:27:42.141Z,97540.63
2023-04-15T04:30:09.203Z,97539.25
2023-04-15T04:32:35.878Z,97547.50
2023-04-15T04:35:03.051Z,97549.88
2023-04-15T04:37:29.580Z,97510.78
2023-04-15T04:39:56.147Z,97564.28
2023-04-15T04:42:22.846Z,97557.41
2023-04-15T04:44:49.490Z,97565.69
2023-04-15T04:47:16.539Z,97555.81
2023-04-15T04:49:43.184Z,97560.06
2023-04-15T04:52:09.806Z,97558.78
2023-04-15T04:54:36.433Z,97573.47
2023-04-15T04:57:03.073Z,97571.66
2023-04-15T04:59:29.655Z,97581.84
2023-04-15T05:01:56.525Z,97580.00
2023-04-15T05:04:23.209Z,97565.88
2023-04-15T05:06:49.737Z,97589.94
2023-04-15T05:09:16.407Z,97588.81
2023-04-15T05:11:43.073Z,97586.78
2023-04-15T05:14:09.629Z,97592.75
2023-04-15T05:16:36.563Z,97596.81
2023-04-15T05:19:03.365Z,97601.75
2023-04-15T05:21:31.164Z,97609.84
2023-04-15T05:23:57.755Z,97594.47
2023-04-15T05:26:24.357Z,97609.16
2023-04-15T05:28:50.954Z,97616.50
2023-04-15T05:31:17.569Z,97610.44
2023-04-15T05:33:44.259Z,97606.03
2023-04-15T05:36:10.823Z,97572.84
2023-04-15T05:38:37.481Z,97588.63
2023-04-15T05:41:04.110Z,97590.53
2023-04-15T05:43:31.055Z,97598.19
2023-04-15T05:45:57.697Z,97590.13
2023-04-15T05:48:24.349Z,97579.47
2023-04-15T05:50:51.069Z,97600.97
2023-04-15T05:53:17.700Z,97604.47
2023-04-15T05:55:44.324Z,97597.94
2023-04-15T05:58:11.387Z,97602.06
2023-04-15T06:00:38.610Z,97590.84
2023-04-15T06:03:06.297Z,97607.28
2023-04-15T06:05:33.378Z,97599.69
2023-04-15T06:07:59.960Z,97597.09
2023-04-15T06:10:26.564Z,97607.38
2023-04-15T06:12:53.433Z,97607.25
2023-04-15T06:15:20.130Z,97593.66
2023-04-15T06:17:46.733Z,97617.34
2023-04-15T06:20:13.360Z,97618.56
2023-04-15T06:22:40.228Z,97599.16
2023-04-15T06:25:08.722Z,97600.09
2023-04-15T06:27:35.401Z,97591.47
2023-04-15T06:30:02.137Z,97611.38
2023-04-15T06:32:28.838Z,97596.09
2023-04-15T06:34:55.441Z,97622.41
2023-04-15T06:37:22.113Z,97623.53
2023-04-15T06:39:48.753Z,97618.00
2023-04-15T06:42:15.455Z,97625.09
2023-04-15T06:44:42.284Z,97628.47
2023-04-15T06:47:09.188Z,97624.44
2023-04-15T06:49:36.002Z,97634.47
2023-04-15T06:52:02.771Z,97614.16
2023-04-15T06:54:29.340Z,97620.91
2023-04-15T06:56:56.048Z,97612.66
2023-04-15T06:59:22.563Z,97609.50
2023-04-15T07:01:49.183Z,97612.75
2023-04-15T07:04:15.880Z,97613.53
2023-04-15T07:06:42.862Z,97582.50
2023-04-15T07:09:09.851Z,97579.06
2023-04-15T07:11:36.661Z,97602.28
2023-04-15T07:14:03.300Z,97606.78
2023-04-15T07:16:30.467Z,97616.00
2023-04-15T07:18:57.200Z,97602.38
2023-04-15T07:21:25.917Z,97600.91
2023-04-15T07:23:52.614Z,97591.94
2023-04-15T07:26:19.275Z,97591.66
2023-04-15T07:28:47.419Z,97585.72
2023-04-15T07:31:14.909Z,97592.38
2023-04-15T07:33:41.793Z,97593.16
2023-04-15T07:36:08.696Z,97591.53
2023-04-15T07:38:35.641Z,97582.31
2023-04-15T07:41:02.578Z,97579.81
2023-04-15T07:43:29.415Z,97587.78
2023-04-15T07:45:56.072Z,97590.19
2023-04-15T07:48:22.695Z,97578.38
2023-04-15T07:50:49.398Z,97579.53
2023-04-15T07:53:16.029Z,97583.72
2023-04-15T07:55:42.672Z,97561.28
2023-04-15T07:58:09.320Z,97560.78
2023-04-15T08:00:36.247Z,97562.81
2023-04-15T08:03:03.215Z,97578.25
2023-04-15T08:05:30.277Z,97573.38
2023-04-15T08:07:57.270Z,97587.78
2023-04-15T08:10:23.899Z,97583.66
2023-04-15T08:12:50.859Z,97583.91
2023-04-15T08:15:17.660Z,97546.47
2023-04-15T08:17:44.271Z,97577.72
2023-04-15T08:20:11.551Z,97560.53
2023-04-15T08:22:38.053Z,97580.13
2023-04-15T08:25:05.118Z,97539.03
2023-04-15T08:27:31.686Z,97555.16
2023-04-15T08:29:58.450Z,97549.44
2023-04-15T08:32:26.674Z,97567.69
2023-04-15T08:34:53.475Z,97567.75
2023-04-15T08:37:20.052Z,97546.28
2023-04-15T08:39:46.614Z,97546.75
2023-04-15T08:42:18.448Z,97560.63
2023-04-15T08:44:46.677Z,97539.66
2023-04-15T08:47:17.360Z,97553.53
2023-04-15T08:49:44.448Z,97558.13
2023-04-15T08:52:12.175Z,97554.06
2023-04-15T08:54:38.959Z,97559.63
2023-04-15T08:57:06.754Z,97546.06
2023-04-15T08:59:33.367Z,97552.88
2023-04-15T09:02:00.089Z,97569.13
2023-04-15T09:04:28.537Z,97562.75
2023-04-15T09:06:55.165Z,97562.34
2023-04-15T09:09:22.651Z,97562.69
2023-04-15T09:11:50.093Z,97559.53
2023-04-15T09:14:17.366Z,97552.28
2023-04-15T09:17:03.002Z,97556.50
2023-04-15T09:19:30.328Z,97551.66
2023-04-15T09:21:59.307Z,97550.75
2023-04-15T09:24:36.153Z,97540.50
2023-04-15T09:27:03.636Z,97549.91
2023-04-15T09:29:30.329Z,97558.03
2023-04-15T09:31:56.925Z,97554.91
2023-04-15T09:34:35.916Z,97545.69
2023-04-15T09:37:02.530Z,97547.34
2023-04-15T09:39:45.791Z,97549.84
2023-04-15T09:42:12.458Z,97547.44
2023-04-15T09:44:39.101Z,97544.59
2023-04-15T09:47:06.349Z,97535.41
2023-04-15T09:49:33.118Z,97537.66
2023-04-15T09:52:06.129Z,97545.44
2023-04-15T09:54:38.036Z,97541.19
2023-04-15T09:57:10.096Z,97523.25
2023-04-15T09:59:37.084Z,97530.03
2023-04-15T10:02:09.798Z,97526.94
2023-04-15T10:04:40.714Z,97516.97
2023-04-15T10:07:09.573Z,97512.13
2023-04-15T10:09:38.280Z,97506.94
2023-04-15T10:12:05.288Z,97514.25
2023-04-15T10:14:33.308Z,97515.28
2023-04-15T10:17:03.253Z,97508.59
2023-04-15T10:19:33.725Z,97509.19
2023-04-15T10:22:00.389Z,97510.13
2023-04-15T10:24:27.955Z,97488.38
2023-04-15T10:26:55.413Z,97500.59
2023-04-15T10:29:23.595Z,97491.69
2023-04-15T10:31:51.024Z,97459.50
2023-04-15T10:34:18.833Z,97482.81
2023-04-15T10:36:47.054Z,97481.41
2023-04-15T10:39:38.705Z,97483.34
2023-04-15T10:42:11.400Z,97488.91
2023-04-15T10:44:39.314Z,97488.09
2023-04-15T10:47:18.988Z,97497.31
2023-04-15T10:49:56.999Z,97486.47
2023-04-15T10:52:27.519Z,97485.06
2023-04-15T10:55:13.310Z,97484.31
2023-04-15T10:57:43.131Z,97429.19
2023-04-15T11:00:11.519Z,97485.88
2023-04-15T11:02:44.114Z,97481.88
2023-04-15T11:05:12.095Z,97478.16
2023-04-15T11:07:48.617Z,97485.34
2023-04-15T11:10:18.546Z,97488.03
2023-04-15T11:12:46.023Z,97475.72
2023-04-15T11:15:33.246Z,97478.53
2023-04-15T11:18:09.660Z,97470.81
2023-04-15T11:20:37.631Z,97472.97
2023-04-15T11:23:13.889Z,97462.19
2023-04-15T11:25:43.217Z,97435.06
2023-04-15T11:28:11.414Z,97460.53
2023-04-15T11:30:39.009Z,97477.78
2023-04-15T11:33:12.262Z,97482.75
2023-04-15T11:35:40.968Z,97487.84
2023-04-15T11:38:13.796Z,97481.63
2023-04-15T11:40:42.459Z,97491.16
2023-04-15T11:43:15.934Z,97462.31
2023-04-15T11:45:51.345Z,97494.69
2023-04-15T11:48:18.753Z,97487.03
2023-04-15T11:50:45.628Z,97495.22
2023-04-15T11:53:16.207Z,97483.59
2023-04-15T11:55:47.888Z,97500.38
2023-04-15T11:58:19.418Z,97502.69
2023-04-15T12:00:54.705Z,97495.50
2023-04-15T12:03:27.785Z,97509.94
2023-04-15T12:06:16.405Z,97504.25
2023-04-15T12:08:55.970Z,97504.88
2023-04-15T12:11:47.460Z,97508.47
2023-04-15T12:14:28.341Z,97517.97
2023-04-15T12:16:56.040Z,97516.34
2023-04-15T12:19:28.606Z,97515.50
2023-04-15T12:22:04.266Z,97484.63
2023-04-15T12:24:35.948Z,97487.47
2023-04-15T12:27:08.071Z,97510.94
2023-04-15T12:29:37.333Z,97504.69
2023-04-15T12:32:08.497Z,97504.16
2023-04-15T12:34:35.723Z,97518.66
2023-04-15T12:37:05.016Z,97510.19
2023-04-15T12:39:42.052Z,97511.25
2023-04-15T12:42:09.798Z,97518.81
2023-04-15T12:44:37.704Z,97495.72
2023-04-15T12:47:04.963Z,97486.97
2023-04-15T12:49:32.637Z,97487.00
2023-04-15T12:52:01.613Z,97497.69
2023-04-15T12:54:29.725Z,97492.84
2023-04-15T12:56:56.853Z,97468.06
2023-04-15T12:59:26.577Z,97465.59
2023-04-15T13:01:53.660Z,97476.00
2023-04-15T13:04:21.341Z,97484.41
2023-04-15T13:06:51.533Z,97510.84
2023-04-15T13:09:18.303Z,97485.00
2023-04-15T13:11:44.904Z,97449.09
2023-04-15T13:14:12.990Z,97467.34
2023-04-15T13:16:39.947Z,97489.38
2023-04-15T13:19:07.364Z,97502.53
2023-04-15T13:21:35.688Z,97484.44
2023-04-15T13:24:03.616Z,97493.09
2023-04-15T13:26:31.335Z,97490.47
2023-04-15T13:28:58.167Z,97496.75
2023-04-15T13:31:24.750Z,97459.56
2023-04-15T13:33:51.816Z,97476.34
2023-04-15T13:36:20.489Z,97442.50
2023-04-15T13:38:49.680Z,97485.50
2023-04-15T13:41:17.744Z,97486.13
2023-04-15T13:43:44.408Z,97479.72
2023-04-15T13:46:11.155Z,97482.59
2023-04-15T13:48:40.705Z,97480.50
2023-04-15T13:51:07.265Z,97487.41
2023-04-15T13:53:38.679Z,97497.03
2023-04-15T13:56:10.360Z,97452.13
2023-04-15T13:58:37.963Z,97473.88
2023-04-15T14:01:07.610Z,97488.00
2023-04-15T14:03:36.088Z,97489.59
2023-04-15T14:06:03.235Z,97494.66
2023-04-15T14:08:30.022Z,97497.22
2023-04-15T14:10:57.575Z,97457.16
2023-04-15T14:13:24.280Z,97491.25
2023-04-15T14:15:50.824Z,97499.72
2023-04-15T14:18:17.546Z,97483.59
2023-04-15T14:20:46.619Z,97459.81
2023-04-15T14:23:13.185Z,97474.34
2023-04-15T14:25:39.823Z,97490.72
2023-04-15T14:28:06.363Z,97500.84
2023-04-15T14:30:33.304Z,97472.16
2023-04-15T14:33:00.317Z,97486.00
2023-04-15T14:35:27.381Z,97451.66
2023-04-15T14:37:54.677Z,97480.47
2023-04-15T14:40:21.994Z,97487.66
2023-04-15T14:42:48.718Z,97496.25
2023-04-15T14:45:15.435Z,97486.34
2023-04-15T14:47:42.165Z,97492.09
2023-04-15T14:50:09.258Z,97492.13
2023-04-15T14:52:39.048Z,97478.31
2023-04-15T14:55:07.792Z,97504.69
2023-04-15T14:57:34.628Z,97481.09
2023-04-15T15:00:01.383Z,97524.41
2023-04-15T15:02:38.118Z,97519.22
2023-04-15T15:05:07.231Z,97513.94
2023-04-15T15:07:33.988Z,97516.38
2023-04-15T15:10:00.928Z,97497.09
2023-04-15T15:12:27.596Z,97521.25
2023-04-15T15:14:55.991Z,97522.38
2023-04-15T15:17:22.623Z,97529.28
2023-04-15T15:19:49.615Z,97521.66
2023-04-15T15:22:16.370Z,97523.28
2023-04-15T15:24:43.125Z,97525.34
2023-04-15T15:27:10.012Z,97524.13
2023-04-15T15:29:37.918Z,97536.56
2023-04-15T15:32:04.740Z,97530.59
2023-04-15T15:34:32.072Z,97533.94
2023-04-15T15:36:58.775Z,97511.25
2023-04-15T15:39:25.990Z,97539.97
2023-04-15T15:41:52.679Z,97535.91
2023-04-15T15:44:19.352Z,97550.16
2023-04-15T15:46:46.266Z,97549.06
2023-04-15T15:49:12.969Z,97552.31
2023-04-15T15:51:39.695Z,97555.94
2023-04-15T15:54:06.546Z,97560.94
2023-04-15T15:56:34.385Z,97563.06
2023-04-15T15:59:02.022Z,97576.47
2023-04-15T16:01:28.969Z,97579.34
2023-04-15T16:03:55.863Z,97563.81
2023-04-15T16:06:22.596Z,97585.38
2023-04-15T16:08:49.217Z,97570.81
2023-04-15T16:11:16.047Z,97576.22
2023-04-15T16:13:42.797Z,97584.97
2023-04-15T16:16:09.411Z,97588.81
2023-04-15T16:18:36.287Z,97596.88
2023-04-15T16:21:02.925Z,97595.16
2023-04-15T16:23:29.603Z,97603.63
2023-04-15T16:25:56.243Z,97602.47
2023-04-15T16:28:26.869Z,97590.44
2023-04-15T16:30:55.003Z,97610.25
2023-04-15T16:33:21.609Z,97602.25
2023-04-15T16:35:48.283Z,97594.94
2023-04-15T16:38:15.837Z,97606.84
2023-04-15T16:40:42.493Z,97621.84
2023-04-15T16:43:11.224Z,97599.75
2023-04-15T16:45:38.143Z,97620.72
2023-04-15T16:48:05.013Z,97624.13
2023-04-15T16:50:31.882Z,97626.84
2023-04-15T16:52:58.526Z,97629.06
2023-04-15T16:55:25.408Z,97629.88
2023-04-15T16:58:01.525Z,97633.16
2023-04-15T17:00:31.603Z,97606.72
2023-04-15T17:02:59.228Z,97618.16
2023-04-15T17:05:29.200Z,97635.28
2023-04-15T17:07:55.938Z,97627.63
2023-04-15T17:10:23.372Z,97632.78
2023-04-15T17:12:51.911Z,97649.09
2023-04-15T17:15:19.432Z,97648.22
2023-04-15T17:17:46.146Z,97662.63
2023-04-15T17:20:13.014Z,97665.28
2023-04-15T17:22:39.869Z,97648.97
2023-04-15T17:25:06.997Z,97661.22
2023-04-15T17:27:33.655Z,97677.03
2023-04-15T17:30:00.332Z,97681.38
2023-04-15T17:32:31.780Z,97685.06
2023-04-15T17:34:58.717Z,97674.56
2023-04-15T17:37:25.604Z,97688.69
2023-04-15T17:39:53.364Z,97700.63
2023-04-15T17:42:19.915Z,97700.03
2023-04-15T17:44:46.472Z,97692.00
2023-04-15T17:47:13.076Z,97696.47
2023-04-15T17:49:39.852Z,97714.97
2023-04-15T17:52:06.521Z,97704.16
2023-04-15T17:54:33.163Z,97734.63
2023-04-15T17:57:00.107Z,97736.28
2023-04-15T17:59:27.864Z,97740.16
2023-04-15T18:01:55.026Z,97738.31
2023-04-15T18:04:24.051Z,97739.16
2023-04-15T18:06:52.790Z,97734.09
2023-04-15T18:09:19.365Z,97751.53
2023-04-15T18:11:48.282Z,97770.47
2023-04-15T18:14:26.642Z,97759.34
2023-04-15T18:16:57.788Z,97778.38
2023-04-15T18:19:25.762Z,97777.13
2023-04-15T18:21:52.572Z,97786.44
2023-04-15T18:24:19.347Z,97781.97
2023-04-15T18:26:48.742Z,97783.63
2023-04-15T18:29:15.656Z,97781.06
2023-04-15T18:31:42.265Z,97787.69
2023-04-15T18:34:09.166Z,97797.22
2023-04-15T18:36:35.830Z,97805.44
2023-04-15T18:39:02.873Z,97805.69
2023-04-15T18:41:29.793Z,97825.75
2023-04-15T18:43:56.506Z,97800.38
2023-04-15T18:46:23.181Z,97809.63
2023-04-15T18:48:49.870Z,97831.13
2023-04-15T18:51:16.546Z,97818.19
2023-04-15T18:53:43.242Z,97833.34
2023-04-15T18:56:09.906Z,97828.28
2023-04-15T18:59:26.022Z,97844.16
2023-04-15T19:01:24.193Z,97854.22
2023-04-15T19:03:50.978Z,97858.78
2023-04-15T19:06:17.712Z,97851.84
2023-04-15T19:08:44.456Z,97873.34
2023-04-15T19:11:11.360Z,97873.91
2023-04-15T19:13:37.936Z,97874.03
2023-04-15T19:16:04.819Z,97871.66
2023-04-15T19:18:31.438Z,97887.69
2023-04-15T19:20:58.215Z,97887.59
2023-04-15T19:23:25.005Z,97888.63
2023-04-15T19:25:51.637Z,97887.59
2023-04-15T19:28:18.296Z,97893.78
2023-04-15T19:30:44.974Z,97900.78
2023-04-15T19:33:12.051Z,97905.38
2023-04-15T19:35:40.473Z,97906.63
2023-04-15T19:38:07.024Z,97917.88
2023-04-15T19:40:33.784Z,97912.19
2023-04-15T19:43:00.496Z,97921.50
2023-04-15T19:45:27.291Z,97928.44
2023-04-15T19:47:54.367Z,97916.13
2023-04-15T19:50:25.808Z,97919.66
2023-04-15T19:52:53.096Z,97922.28
2023-04-15T19:55:20.071Z,97901.88
2023-04-15T19:57:46.876Z,97930.78
2023-04-15T20:00:13.884Z,97937.22
2023-04-15T20:02:40.877Z,97942.44
2023-04-15T20:05:09.876Z,97933.81
2023-04-15T20:07:36.845Z,97943.16
2023-04-15T20:10:08.523Z,97940.31
2023-04-15T20:12:51.475Z,97930.63
2023-04-15T20:15:20.826Z,97940.16
2023-04-15T20:17:47.553Z,97942.84
2023-04-15T20:20:14.268Z,97957.06
2023-04-15T20:22:41.431Z,97955.84
2023-04-15T20:25:08.804Z,97938.81
2023-04-15T20:27:35.495Z,97951.72
2023-04-15T20:30:04.672Z,97974.31
2023-04-15T20:32:36.019Z,97969.22
2023-04-15T20:35:05.558Z,97976.78
2023-04-15T20:37:33.567Z,97971.75
2023-04-15T20:40:00.685Z,97957.19
2023-04-15T20:42:27.262Z,97964.97
2023-04-15T20:44:53.965Z,97987.91
2023-04-15T20:47:20.798Z,98005.09
2023-04-15T20:49:47.550Z,98007.78
2023-04-15T20:52:14.232Z,98017.53
2023-04-15T20:54:41.049Z,98025.22
2023-04-15T20:57:07.666Z,98027.72
2023-04-15T20:59:34.806Z,98029.56
2023-04-15T21:02:01.923Z,98019.88
2023-04-15T21:04:28.685Z,98031.44
2023-04-15T21:06:55.406Z,98042.84
2023-04-15T21:09:22.029Z,98038.69
2023-04-15T21:14:19.256Z,98044.28
2023-04-15T21:16:46.040Z,98052.75
2023-04-15T21:19:12.705Z,98061.00
2023-04-15T21:21:39.389Z,98056.03
2023-04-15T21:24:07.903Z,98064.44
2023-04-15T21:26:36.095Z,98064.63
2023-04-15T21:29:03.054Z,98066.28
2023-04-15T21:31:30.068Z,98063.78
2023-04-15T21:33:56.742Z,98073.91
2023-04-15T21:36:23.336Z,98061.72
2023-04-15T21:38:49.927Z,98082.16
2023-04-15T21:41:16.525Z,98078.69
2023-04-15T21:43:43.243Z,98062.75
2023-04-15T21:46:22.697Z,98095.63
2023-04-15T21:48:50.714Z,98097.50
2023-04-15T21:51:17.330Z,98107.78
2023-04-15T21:53:43.987Z,98105.91
2023-04-15T21:56:10.843Z,98103.44
2023-04-15T21:58:37.575Z,98109.63
2023-04-15T22:01:04.966Z,98118.53
2023-04-15T22:03:33.888Z,98119.31
2023-04-15T22:06:01.834Z,98114.94
2023-04-15T22:08:28.482Z,98108.72
2023-04-15T22:10:55.487Z,98122.28
2023-04-15T22:13:22.082Z,98136.94
2023-04-15T22:15:48.776Z,98127.81
2023-04-15T22:18:15.541Z,98130.91
2023-04-15T22:20:42.174Z,98146.19
2023-04-15T22:23:09.751Z,98151.97
2023-04-15T22:25:37.192Z,98154.91
2023-04-15T22:28:07.930Z,98156.97
2023-04-15T22:30:41.430Z,98138.56
2023-04-15T22:33:09.236Z,98161.75
2023-04-15T22:35:37.179Z,98175.44
2023-04-15T22:38:04.844Z,98177.28
2023-04-15T22:40:31.465Z,98184.53
2023-04-15T22:42:58.120Z,98194.44
2023-04-15T22:45:24.642Z,98187.22
2023-04-15T22:47:51.337Z,98182.47
2023-04-15T22:50:18.078Z,98186.38
2023-04-15T22:52:46.201Z,98197.59
2023-04-15T22:55:13.168Z,98187.63
2023-04-15T22:57:39.851Z,98200.03
2023-04-15T23:00:07.358Z,98192.94
2023-04-15T23:02:34.757Z,98200.16
2023-04-15T23:05:04.599Z,98205.16
2023-04-15T23:07:38.970Z,98190.59
2023-04-15T23:10:06.117Z,98206.16
2023-04-15T23:12:32.783Z,98216.94
2023-04-15T23:14:59.467Z,98202.38
2023-04-15T23:17:26.786Z,98211.03
2023-04-15T23:19:53.461Z,98196.47
2023-04-15T23:22:20.050Z,98227.47
2023-04-15T23:24:46.630Z,98238.41
2023-04-15T23:27:13.365Z,98225.22
2023-04-15T23:29:40.029Z,98238.22
2023-04-15T23:32:06.815Z,98242.88
2023-04-15T23:34:33.430Z,98224.91
2023-04-15T23:37:00.052Z,98236.75
2023-04-15T23:39:26.726Z,98237.50
2023-04-15T23:41:53.466Z,98242.13
2023-04-15T23:44:20.289Z,98240.06
2023-04-15T23:46:47.097Z,98244.16
2023-04-15T23:49:13.672Z,98249.00
2023-04-15T23:51:40.979Z,98231.19
2023-04-15T23:54:07.590Z,98245.06
2023-04-15T23:56:34.257Z,98228.47
2023-04-15T23:59:01.106Z,98238.47
